Time;durP1;ratioP1;P1;durP2;ratioP2;P2;SDS_P1;SDS_P2;PMS_P1;PMS_P2;Temp;Humidity;BMP_temperature;BMP_pressure;BME280_temperature;BME280_humidity;BME280_pressure;Samples;Min_cycle;Max_cycle;Signal;HPM_P1;HPM_P2
2020/12/10 00:02:30;;;;;;;28.75;16.40;;;1.70;99.90;;;;;;5013690;28;20026;-79
2020/12/10 00:04:56;;;;;;;30.73;17.50;;;1.70;99.90;;;;;;5011523;28;20479;-79
2020/12/10 00:07:23;;;;;;;27.88;15.60;;;1.70;99.90;;;;;;5014910;28;20056;-79
2020/12/10 00:09:54;;;;;;;26.88;15.65;;;1.70;99.90;;;;;;5014250;28;20490;-79
2020/12/10 00:12:21;;;;;;;27.77;15.88;;;1.70;99.90;;;;;;5012913;28;20041;-79
2020/12/10 00:14:53;;;;;;;28.13;15.75;;;1.70;99.90;;;;;;5013182;28;20050;-78
2020/12/10 00:17:38;;;;;;;48.95;23.90;;;1.60;99.90;;;;;;5012172;28;20447;-79
2020/12/10 00:20:06;;;;;;;63.08;32.63;;;1.60;99.90;;;;;;5011633;28;20344;-78
2020/12/10 00:22:33;;;;;;;60.67;30.92;;;1.60;99.90;;;;;;5012187;28;20034;-78
2020/12/10 00:25:01;;;;;;;35.22;19.95;;;1.60;99.90;;;;;;5012215;28;20041;-78
2020/12/10 00:27:27;;;;;;;31.23;17.10;;;1.60;99.90;;;;;;5011138;28;20065;-78
2020/12/10 00:29:57;;;;;;;28.02;16.30;;;1.50;99.90;;;;;;5011709;28;20479;-78
2020/12/10 00:32:26;;;;;;;28.30;15.93;;;1.50;99.90;;;;;;5011246;28;20033;-78
2020/12/10 00:34:56;;;;;;;25.92;15.45;;;1.50;99.90;;;;;;5011586;28;20045;-78
2020/12/10 00:37:27;;;;;;;32.17;17.00;;;1.50;99.90;;;;;;5016024;28;20029;-78
2020/12/10 00:39:54;;;;;;;31.15;17.90;;;1.50;99.90;;;;;;5028883;28;20970;-80
2020/12/10 00:42:20;;;;;;;29.65;17.02;;;1.50;99.90;;;;;;4994164;28;20368;-80
2020/12/10 00:44:47;;;;;;;29.33;16.98;;;1.60;99.90;;;;;;5012112;28;20033;-79
2020/12/10 00:47:22;;;;;;;31.40;18.05;;;1.60;99.90;;;;;;4994269;28;20414;-79
2020/12/10 00:49:51;;;;;;;29.52;17.13;;;1.60;99.90;;;;;;5010447;28;20407;-80
2020/12/10 00:52:23;;;;;;;33.08;18.50;;;1.60;99.90;;;;;;4993541;28;20052;-78
2020/12/10 00:54:50;;;;;;;28.20;15.95;;;1.60;99.90;;;;;;5011152;28;20406;-78
2020/12/10 00:57:17;;;;;;;28.65;15.82;;;1.60;99.90;;;;;;4993891;28;20046;-80
2020/12/10 00:59:43;;;;;;;28.92;17.38;;;1.60;99.90;;;;;;5011100;28;20041;-79
2020/12/10 01:02:10;;;;;;;33.25;16.83;;;1.60;99.90;;;;;;5011120;28;20030;-79
2020/12/10 01:04:36;;;;;;;29.88;17.27;;;1.60;99.90;;;;;;5010958;28;20426;-79
2020/12/10 01:07:03;;;;;;;26.00;16.50;;;1.60;99.90;;;;;;5011134;28;20037;-80
2020/12/10 01:09:30;;;;;;;31.73;17.23;;;1.60;99.90;;;;;;5011369;28;20034;-79
2020/12/10 01:11:56;;;;;;;27.23;17.38;;;1.60;99.90;;;;;;5011753;28;20053;-79
2020/12/10 01:14:23;;;;;;;32.47;17.17;;;1.60;99.90;;;;;;5013307;28;20048;-79
2020/12/10 01:16:49;;;;;;;27.65;16.58;;;1.60;99.90;;;;;;5015192;28;20034;-80
2020/12/10 01:19:15;;;;;;;30.23;18.27;;;1.60;99.90;;;;;;5014409;28;20038;-80
2020/12/10 01:21:42;;;;;;;30.63;18.50;;;1.60;99.90;;;;;;5015097;28;20037;-80
2020/12/10 01:24:10;;;;;;;31.05;16.25;;;1.60;99.90;;;;;;5014424;28;20422;-79
2020/12/10 01:26:37;;;;;;;29.98;16.60;;;1.60;99.90;;;;;;5014928;28;20367;-79
2020/12/10 01:29:04;;;;;;;30.20;16.55;;;1.60;99.90;;;;;;4997020;28;20041;-80
2020/12/10 01:31:31;;;;;;;31.58;18.23;;;1.60;99.90;;;;;;5014758;28;20045;-79
2020/12/10 01:33:57;;;;;;;30.85;17.42;;;1.60;99.90;;;;;;5014447;28;20038;-79
2020/12/10 01:36:27;;;;;;;28.27;15.98;;;1.60;99.90;;;;;;4996699;28;20042;-80
2020/12/10 01:38:54;;;;;;;29.08;16.85;;;1.60;99.90;;;;;;5014643;28;20048;-79
2020/12/10 01:41:25;;;;;;;30.60;16.83;;;1.60;99.90;;;;;;5014142;28;20033;-80
2020/12/10 01:44:09;;;;;;;28.65;16.20;;;1.60;99.90;;;;;;5014602;28;20038;-77
2020/12/10 01:46:37;;;;;;;28.10;15.80;;;1.60;99.90;;;;;;5018569;28;20462;-80
2020/12/10 01:49:05;;;;;;;24.08;13.93;;;1.60;99.90;;;;;;5028594;28;20033;-80
2020/12/10 01:51:32;;;;;;;28.70;16.35;;;1.60;99.90;;;;;;5014949;28;20037;-79
2020/12/10 01:53:59;;;;;;;25.08;15.15;;;1.50;99.90;;;;;;5014404;28;20049;-80
2020/12/10 01:56:27;;;;;;;25.92;15.23;;;1.50;99.90;;;;;;4996580;28;20052;-77
2020/12/10 01:58:54;;;;;;;23.00;14.23;;;1.40;99.90;;;;;;5014434;28;20055;-80
2020/12/10 02:01:21;;;;;;;25.70;14.95;;;1.40;99.90;;;;;;5013704;28;20026;-80
2020/12/10 02:03:48;;;;;;;27.58;15.48;;;1.40;99.90;;;;;;5014015;28;20395;-80
2020/12/10 02:06:14;;;;;;;28.35;15.52;;;1.40;99.90;;;;;;5013437;28;20037;-80
2020/12/10 02:08:42;;;;;;;27.95;15.70;;;1.30;99.90;;;;;;4997155;28;20041;-80
2020/12/10 02:11:12;;;;;;;28.27;15.77;;;1.40;99.90;;;;;;4996278;28;20073;-79
2020/12/10 02:13:39;;;;;;;31.10;18.00;;;1.40;99.90;;;;;;5013405;28;20037;-79
2020/12/10 02:16:07;;;;;;;28.52;17.02;;;1.40;99.90;;;;;;4996351;28;20033;-80
2020/12/10 02:18:33;;;;;;;28.92;16.55;;;1.50;99.90;;;;;;4996226;28;20049;-79
2020/12/10 02:21:00;;;;;;;29.83;16.90;;;1.50;99.90;;;;;;5003698;28;20398;-79
2020/12/10 02:23:26;;;;;;;29.05;15.82;;;1.50;99.90;;;;;;4982942;28;20558;-80
2020/12/10 02:25:52;;;;;;;30.25;17.38;;;1.50;99.90;;;;;;5012817;28;20022;-79
2020/12/10 02:28:19;;;;;;;30.98;17.08;;;1.50;99.90;;;;;;5013650;28;20049;-80
2020/12/10 02:30:47;;;;;;;31.15;17.38;;;1.50;99.90;;;;;;5013321;28;20029;-80
2020/12/10 02:33:14;;;;;;;32.10;17.10;;;1.50;99.90;;;;;;5013222;28;20044;-80
2020/12/10 02:35:42;;;;;;;31.15;16.20;;;1.50;99.90;;;;;;5013601;28;20045;-80
2020/12/10 02:38:10;;;;;;;28.33;16.33;;;1.50;99.90;;;;;;5012187;28;20042;-80
2020/12/10 02:40:39;;;;;;;30.23;16.77;;;1.50;99.90;;;;;;5013317;28;20382;-80
2020/12/10 02:43:07;;;;;;;33.03;16.08;;;1.50;99.90;;;;;;5013031;28;20096;-79
2020/12/10 02:45:33;;;;;;;29.27;15.50;;;1.50;99.90;;;;;;5013169;28;20487;-79
2020/12/10 02:48:00;;;;;;;32.47;16.45;;;1.40;99.90;;;;;;5013758;28;20462;-79
2020/12/10 02:50:26;;;;;;;30.30;17.98;;;1.40;99.90;;;;;;5012880;28;20033;-79
2020/12/10 02:52:52;;;;;;;28.83;17.00;;;1.40;99.90;;;;;;5012670;28;20505;-79
2020/12/10 02:55:18;;;;;;;27.98;15.05;;;1.50;99.90;;;;;;5012766;28;20348;-80
2020/12/10 02:57:45;;;;;;;30.95;16.40;;;1.50;99.90;;;;;;5013159;28;20056;-79
2020/12/10 03:00:11;;;;;;;32.92;17.33;;;1.50;99.90;;;;;;5012608;28;20037;-80
2020/12/10 03:02:38;;;;;;;29.08;16.55;;;1.50;99.90;;;;;;5012994;28;20045;-80
2020/12/10 03:05:06;;;;;;;26.88;15.55;;;1.50;99.90;;;;;;5008601;28;20045;-80
2020/12/10 03:07:33;;;;;;;27.80;15.48;;;1.50;99.90;;;;;;4995619;28;20498;-80
2020/12/10 03:10:00;;;;;;;28.75;15.82;;;1.50;99.90;;;;;;5013318;28;20041;-78
2020/12/10 03:12:26;;;;;;;28.58;15.65;;;1.50;99.90;;;;;;5012673;28;20047;-78
2020/12/10 03:14:52;;;;;;;28.38;15.45;;;1.50;99.90;;;;;;4995389;28;20034;-78
2020/12/10 03:17:18;;;;;;;25.25;15.38;;;1.40;99.90;;;;;;5013016;28;20403;-78
2020/12/10 03:19:45;;;;;;;29.67;16.92;;;1.40;99.90;;;;;;4995538;28;20052;-78
2020/12/10 03:22:13;;;;;;;31.23;16.90;;;1.40;99.90;;;;;;5012441;28;20467;-77
2020/12/10 03:24:40;;;;;;;26.88;15.82;;;1.40;99.90;;;;;;5012899;28;20033;-78
2020/12/10 03:27:07;;;;;;;28.65;15.55;;;1.30;99.90;;;;;;5012820;28;20032;-77
2020/12/10 03:29:34;;;;;;;26.77;15.10;;;1.40;99.90;;;;;;4995661;28;20259;-78
2020/12/10 03:32:02;;;;;;;28.25;16.40;;;1.30;99.90;;;;;;5012562;28;20037;-79
2020/12/10 03:34:29;;;;;;;29.83;16.80;;;1.30;99.90;;;;;;5007413;28;20583;-79
2020/12/10 03:36:58;;;;;;;28.40;16.40;;;1.40;99.90;;;;;;5015430;28;20054;-80
2020/12/10 03:39:26;;;;;;;31.77;16.90;;;1.30;99.90;;;;;;4999803;28;20046;-80
2020/12/10 03:41:53;;;;;;;32.60;16.70;;;1.30;99.90;;;;;;5013831;28;20407;-80
2020/12/10 03:44:20;;;;;;;29.17;15.77;;;1.30;99.90;;;;;;4994981;28;20053;-79
2020/12/10 03:46:47;;;;;;;32.05;18.00;;;1.30;99.90;;;;;;5012438;28;20030;-79
2020/12/10 03:49:13;;;;;;;35.55;16.70;;;1.30;99.90;;;;;;5011984;28;20030;-79
2020/12/10 03:51:40;;;;;;;29.98;17.48;;;1.30;99.90;;;;;;5011897;28;20029;-80
2020/12/10 03:54:07;;;;;;;34.60;18.30;;;1.30;99.90;;;;;;4993830;28;20141;-79
2020/12/10 03:56:34;;;;;;;31.33;16.15;;;1.30;99.90;;;;;;5012201;28;20044;-79
2020/12/10 03:59:02;;;;;;;28.95;17.23;;;1.30;99.90;;;;;;5012456;28;20026;-79
2020/12/10 04:01:31;;;;;;;30.42;16.85;;;1.30;99.90;;;;;;5011756;28;20029;-79
2020/12/10 04:03:57;;;;;;;31.65;17.30;;;1.30;99.90;;;;;;5012217;28;20038;-80
2020/12/10 04:06:25;;;;;;;30.98;17.63;;;1.30;99.90;;;;;;4994214;28;20048;-80
2020/12/10 04:08:52;;;;;;;30.33;16.58;;;1.30;99.90;;;;;;5005260;28;20030;-80
2020/12/10 04:11:18;;;;;;;28.73;16.92;;;1.30;99.90;;;;;;5011556;28;20030;-80
2020/12/10 04:13:45;;;;;;;29.75;16.88;;;1.30;99.90;;;;;;5001534;28;20034;-79
2020/12/10 04:16:11;;;;;;;29.48;18.17;;;1.30;99.90;;;;;;5011420;28;20526;-80
2020/12/10 04:18:41;;;;;;;30.95;17.27;;;1.30;99.90;;;;;;5011897;28;20037;-79
2020/12/10 04:21:11;;;;;;;27.38;15.45;;;1.20;99.90;;;;;;5011287;28;20415;-79
2020/12/10 04:23:38;;;;;;;26.67;15.90;;;1.20;99.90;;;;;;5011458;28;20041;-79
2020/12/10 04:26:05;;;;;;;31.17;16.85;;;1.20;99.90;;;;;;5011987;28;20526;-80
2020/12/10 04:28:31;;;;;;;26.98;15.38;;;1.30;99.90;;;;;;5011211;28;20029;-79
2020/12/10 04:30:57;;;;;;;28.40;15.88;;;1.20;99.90;;;;;;5012110;28;20030;-79
2020/12/10 04:33:24;;;;;;;29.15;15.82;;;1.30;99.90;;;;;;5011320;28;20026;-80
2020/12/10 04:35:50;;;;;;;27.90;15.23;;;1.20;99.90;;;;;;5011648;28;20030;-79
2020/12/10 04:38:16;;;;;;;30.38;16.88;;;1.30;99.90;;;;;;4991032;28;20041;-79
2020/12/10 04:40:43;;;;;;;26.77;15.93;;;1.30;99.90;;;;;;4994760;28;20058;-79
2020/12/10 04:43:12;;;;;;;26.83;15.13;;;1.30;99.90;;;;;;5011517;28;20030;-80
2020/12/10 04:45:38;;;;;;;26.88;15.57;;;1.30;99.90;;;;;;5011329;28;20037;-81
2020/12/10 04:48:05;;;;;;;27.20;16.10;;;1.20;99.90;;;;;;4994992;28;20038;-81
2020/12/10 04:50:34;;;;;;;25.48;15.02;;;1.20;99.90;;;;;;5014970;28;20030;-80
2020/12/10 04:53:01;;;;;;;31.08;16.55;;;1.20;99.90;;;;;;5014299;28;20053;-80
2020/12/10 04:55:27;;;;;;;29.73;16.60;;;1.20;99.90;;;;;;4998333;28;20053;-80
2020/12/10 04:57:54;;;;;;;30.98;16.63;;;1.20;99.90;;;;;;5015407;28;20034;-80
2020/12/10 05:00:21;;;;;;;29.55;15.27;;;1.20;99.90;;;;;;5015239;28;20022;-79
2020/12/10 05:02:48;;;;;;;27.08;14.60;;;1.20;99.90;;;;;;4998559;28;20049;-80
2020/12/10 05:05:29;;;;;;;32.95;16.63;;;1.20;99.90;;;;;;5014644;28;20471;-80
2020/12/10 05:07:58;;;;;;;31.77;17.45;;;1.30;99.90;;;;;;5014747;28;20038;-80
2020/12/10 05:10:25;;;;;;;33.97;18.00;;;1.30;99.90;;;;;;5014880;28;20475;-79
2020/12/10 05:13:07;;;;;;;36.30;19.75;;;1.20;99.90;;;;;;5009071;28;20034;-79
2020/12/10 05:15:34;;;;;;;;;;;1.30;99.90;;;;;;4996991;28;20054;-79
2020/12/10 05:18:11;;;;;;;32.65;16.25;;;1.30;99.90;;;;;;5015259;28;19920;-80
2020/12/10 05:20:41;;;;;;;28.95;16.58;;;1.30;99.90;;;;;;5015692;28;20037;-80
2020/12/10 05:23:08;;;;;;;34.70;17.88;;;1.30;99.90;;;;;;5012084;28;20042;-80
2020/12/10 05:25:48;;;;;;;35.22;17.73;;;1.30;99.90;;;;;;5024576;28;20048;-79
2020/12/10 05:28:14;;;;;;;30.42;16.15;;;1.30;99.90;;;;;;5016118;28;20034;-79
2020/12/10 05:30:43;;;;;;;30.25;16.10;;;1.30;99.90;;;;;;5015056;28;20037;-80
2020/12/10 05:33:14;;;;;;;29.67;15.02;;;1.30;99.90;;;;;;5014661;28;20045;-78
2020/12/10 05:35:41;;;;;;;29.58;16.27;;;1.30;99.90;;;;;;5014728;28;20045;-80
2020/12/10 05:38:10;;;;;;;30.75;15.93;;;1.30;99.90;;;;;;5016605;28;20037;-79
2020/12/10 05:40:37;;;;;;;26.23;15.60;;;1.30;99.90;;;;;;5025271;28;20030;-80
2020/12/10 05:43:04;;;;;;;27.92;16.25;;;1.30;99.90;;;;;;5048608;28;20037;-79
2020/12/10 05:45:36;;;;;;;33.85;16.05;;;1.30;99.90;;;;;;5010606;28;20044;-79
2020/12/10 05:48:03;;;;;;;30.20;16.35;;;1.30;99.90;;;;;;5014610;28;20391;-79
2020/12/10 05:50:31;;;;;;;30.23;16.63;;;1.40;99.90;;;;;;4996714;28;20041;-80
2020/12/10 05:53:06;;;;;;;30.38;16.05;;;1.30;99.90;;;;;;5014058;28;20410;-80
2020/12/10 05:55:34;;;;;;;26.95;15.65;;;1.30;99.90;;;;;;5013888;28;20030;-80
2020/12/10 05:58:02;;;;;;;29.35;15.68;;;1.30;99.90;;;;;;5014790;28;20383;-73
2020/12/10 06:00:28;;;;;;;30.48;17.92;;;1.20;99.90;;;;;;5012763;28;20034;-75
2020/12/10 06:02:55;;;;;;;28.65;16.20;;;1.30;99.90;;;;;;5013876;28;20026;-75
2020/12/10 06:05:24;;;;;;;31.58;18.02;;;1.30;99.90;;;;;;4995620;28;20048;-78
2020/12/10 06:08:07;;;;;;;32.70;16.75;;;1.30;99.90;;;;;;5032506;28;20025;-76
2020/12/10 06:10:42;;;;;;;31.00;16.52;;;1.30;99.90;;;;;;4996055;28;20387;-75
2020/12/10 06:13:10;;;;;;;28.42;16.17;;;1.30;99.90;;;;;;5004296;28;20041;-77
2020/12/10 06:15:37;;;;;;;32.22;17.13;;;1.20;99.90;;;;;;5011149;28;20380;-76
2020/12/10 06:18:12;;;;;;;27.83;16.88;;;1.30;99.90;;;;;;5019583;28;20038;-75
2020/12/10 06:20:40;;;;;;;26.17;15.02;;;1.30;99.90;;;;;;5013314;28;20401;-75
2020/12/10 06:23:42;;;;;;;32.05;17.65;;;1.30;99.90;;;;;;5033306;28;20025;-75
2020/12/10 06:26:34;;;;;;;28.65;16.10;;;1.20;99.90;;;;;;5034178;28;20393;-79
2020/12/10 06:29:34;;;;;;;27.20;14.57;;;1.20;99.90;;;;;;5014104;28;20030;-76
2020/12/10 06:32:05;;;;;;;30.33;16.15;;;1.20;99.90;;;;;;5013028;28;20046;-76
2020/12/10 06:34:46;;;;;;;19.42;12.35;;;1.20;99.90;;;;;;5012060;28;20041;-76
2020/12/10 06:37:22;;;;;;;31.15;16.30;;;1.30;99.90;;;;;;5036943;28;20037;-77
2020/12/10 06:39:51;;;;;;;37.05;21.30;;;1.30;99.90;;;;;;4997041;28;20038;-76
2020/12/10 06:42:18;;;;;;;44.40;24.88;;;1.30;99.90;;;;;;4995711;28;20049;-77
2020/12/10 06:44:44;;;;;;;37.08;19.88;;;1.30;99.90;;;;;;4996268;28;20045;-77
2020/12/10 06:47:11;;;;;;;34.65;17.38;;;1.30;99.90;;;;;;5013100;28;20387;-78
2020/12/10 06:49:38;;;;;;;30.58;16.73;;;1.30;99.90;;;;;;4996601;28;20087;-78
2020/12/10 06:52:18;;;;;;;30.67;16.98;;;1.30;99.90;;;;;;5013208;28;20034;-79
2020/12/10 06:55:04;;;;;;;32.08;17.45;;;1.30;99.90;;;;;;5012665;28;20049;-79
2020/12/10 06:58:13;;;;;;;31.00;16.02;;;1.30;99.90;;;;;;5012918;28;20298;-79
2020/12/10 07:00:48;;;;;;;29.42;16.67;;;1.30;99.90;;;;;;5013365;28;20048;-77
2020/12/10 07:03:23;;;;;;;26.90;15.25;;;1.40;99.90;;;;;;5013440;28;20041;-77
2020/12/10 07:05:50;;;;;;;29.83;16.05;;;1.40;99.90;;;;;;5030415;28;20498;-78
2020/12/10 07:08:18;;;;;;;33.00;18.60;;;1.40;99.90;;;;;;4999883;28;20044;-78
2020/12/10 07:10:47;;;;;;;35.17;18.35;;;1.40;99.90;;;;;;5012538;28;20152;-81
2020/12/10 07:13:16;;;;;;;33.22;17.65;;;1.40;99.90;;;;;;4998991;28;20053;-81
2020/12/10 07:15:49;;;;;;;33.97;17.63;;;1.40;99.90;;;;;;5001165;28;20049;-82
2020/12/10 07:18:16;;;;;;;37.83;18.50;;;1.50;99.90;;;;;;5014190;28;20045;-81
2020/12/10 07:20:42;;;;;;;31.42;18.27;;;1.50;99.90;;;;;;5014648;28;20353;-81
2020/12/10 07:23:09;;;;;;;31.67;18.90;;;1.50;99.90;;;;;;5013304;28;20041;-81
2020/12/10 07:25:35;;;;;;;32.78;18.38;;;1.50;99.90;;;;;;4995612;28;20052;-82
2020/12/10 07:28:01;;;;;;;32.58;16.98;;;1.60;99.90;;;;;;5013487;28;20025;-83
2020/12/10 07:30:30;;;;;;;30.63;16.40;;;1.50;99.90;;;;;;5012790;28;20037;-83
2020/12/10 07:32:58;;;;;;;29.65;16.58;;;1.50;99.90;;;;;;5004482;28;20042;-82
2020/12/10 07:35:34;;;;;;;33.33;17.95;;;1.50;99.90;;;;;;5012610;28;20038;-81
2020/12/10 07:38:11;;;;;;;34.65;20.50;;;1.50;99.90;;;;;;5012933;28;20037;-83
2020/12/10 07:40:39;;;;;;;38.25;21.88;;;1.50;99.90;;;;;;5012909;28;20391;-82
2020/12/10 07:43:10;;;;;;;37.17;20.70;;;1.60;99.90;;;;;;5013652;28;20030;-83
2020/12/10 07:45:37;;;;;;;37.65;20.00;;;1.70;99.90;;;;;;5015248;28;20048;-82
2020/12/10 07:48:06;;;;;;;35.53;19.30;;;1.70;99.90;;;;;;5012460;28;20038;-83
2020/12/10 07:50:36;;;;;;;31.85;19.73;;;1.70;99.90;;;;;;4994664;28;20046;-83
2020/12/10 07:53:08;;;;;;;36.25;19.83;;;1.70;99.90;;;;;;4979557;28;20046;-83
2020/12/10 07:55:56;;;;;;;37.45;19.98;;;1.70;99.90;;;;;;5010895;28;20042;-85
2020/12/10 07:58:40;;;;;;;39.22;20.92;;;1.70;99.90;;;;;;5011754;28;20046;-85
2020/12/10 08:01:08;;;;;;;35.38;21.13;;;1.60;99.90;;;;;;5012946;28;20036;-85
2020/12/10 08:04:02;;;;;;;34.22;20.50;;;1.70;99.90;;;;;;5009330;28;20508;-85
2020/12/10 08:06:32;;;;;;;33.80;19.85;;;1.70;99.90;;;;;;5010346;28;20046;-84
2020/12/10 08:09:00;;;;;;;26.83;16.67;;;1.70;99.90;;;;;;5010671;28;20399;-85
2020/12/10 08:11:27;;;;;;;40.22;20.83;;;1.70;99.90;;;;;;5011737;28;20034;-84
2020/12/10 08:13:59;;;;;;;41.63;21.45;;;1.80;99.90;;;;;;5012674;28;20029;-84
2020/12/10 08:16:46;;;;;;;39.88;22.27;;;1.80;99.90;;;;;;5011670;28;20045;-84
2020/12/10 08:19:21;;;;;;;34.38;19.98;;;1.80;99.90;;;;;;4994953;28;20034;-84
2020/12/10 08:21:49;;;;;;;33.75;19.52;;;1.80;99.90;;;;;;5012458;28;20030;-84
2020/12/10 08:24:34;;;;;;;40.70;23.48;;;1.80;99.90;;;;;;4997365;28;20041;-84
2020/12/10 08:27:00;;;;;;;36.78;20.63;;;1.80;99.90;;;;;;5016536;28;20038;-84
2020/12/10 08:29:27;;;;;;;32.88;19.80;;;1.80;99.90;;;;;;4998621;28;20049;-84
2020/12/10 08:32:08;;;;;;;29.77;17.80;;;1.80;99.90;;;;;;5016614;28;20026;-84
2020/12/10 08:34:36;;;;;;;31.38;17.77;;;1.80;99.90;;;;;;5016135;28;20038;-84
2020/12/10 08:37:07;;;;;;;27.52;16.50;;;1.90;99.90;;;;;;5034056;28;20049;-84
2020/12/10 08:39:39;;;;;;;32.63;18.77;;;1.90;99.90;;;;;;5013608;28;20053;-84
2020/12/10 08:42:07;;;;;;;27.00;16.77;;;1.90;99.90;;;;;;5016695;28;20037;-84
2020/12/10 08:44:47;;;;;;;31.48;17.83;;;1.90;99.90;;;;;;5015588;28;20057;-84
2020/12/10 08:47:21;;;;;;;29.30;17.40;;;1.90;99.90;;;;;;5015660;28;20113;-84
2020/12/10 08:50:21;;;;;;;32.05;19.02;;;2.00;99.90;;;;;;5015846;28;20037;-84
2020/12/10 08:53:09;;;;;;;29.48;17.73;;;1.90;99.90;;;;;;5015893;28;20053;-85
2020/12/10 08:55:45;;;;;;;28.42;17.40;;;2.00;99.90;;;;;;5014865;28;20042;-85
2020/12/10 08:58:21;;;;;;;64.13;30.85;;;2.00;99.90;;;;;;5015680;28;20482;-85
2020/12/10 09:00:48;;;;;;;40.80;23.42;;;2.00;99.90;;;;;;4998350;28;20045;-84
2020/12/10 09:03:15;;;;;;;32.90;20.13;;;2.00;99.90;;;;;;5015818;28;20034;-85
2020/12/10 09:05:42;;;;;;;26.33;15.13;;;2.00;99.90;;;;;;4998219;28;20030;-84
2020/12/10 09:08:12;;;;;;;29.88;17.80;;;2.00;99.90;;;;;;5015075;28;20045;-84
2020/12/10 09:10:40;;;;;;;30.13;18.00;;;2.10;99.90;;;;;;5015135;28;20042;-84
2020/12/10 09:13:08;;;;;;;27.10;16.48;;;2.10;99.90;;;;;;5015256;28;20040;-84
2020/12/10 09:15:37;;;;;;;33.67;21.98;;;2.10;99.90;;;;;;4996566;28;20053;-84
2020/12/10 09:18:04;;;;;;;34.65;21.13;;;2.20;99.90;;;;;;5015126;28;20034;-85
2020/12/10 09:20:31;;;;;;;29.90;18.52;;;2.20;99.90;;;;;;4997448;28;20038;-85
2020/12/10 09:22:57;;;;;;;28.77;16.80;;;2.20;99.90;;;;;;5015220;28;20029;-84
2020/12/10 09:25:23;;;;;;;30.25;15.88;;;2.20;99.90;;;;;;5014917;28;20034;-85
2020/12/10 09:27:49;;;;;;;32.47;18.27;;;2.20;99.90;;;;;;5015563;28;20052;-84
2020/12/10 09:30:16;;;;;;;26.02;15.25;;;2.30;99.90;;;;;;5015059;28;20044;-84
2020/12/10 09:32:43;;;;;;;29.40;17.83;;;2.30;99.90;;;;;;5015486;28;20030;-84
2020/12/10 09:35:25;;;;;;;29.02;17.98;;;2.20;99.90;;;;;;4997900;28;20046;-83
2020/12/10 09:37:51;;;;;;;35.50;20.38;;;2.30;99.90;;;;;;5015346;28;20026;-83
2020/12/10 09:40:18;;;;;;;32.15;18.25;;;2.40;99.90;;;;;;4996831;28;20395;-82
2020/12/10 09:43:06;;;;;;;28.38;16.52;;;2.40;99.90;;;;;;4998201;28;20033;-83
2020/12/10 09:45:37;;;;;;;46.10;22.77;;;2.40;99.90;;;;;;4997060;28;20333;-83
2020/12/10 09:48:04;;;;;;;29.90;16.80;;;2.40;99.90;;;;;;5014518;28;20053;-83
2020/12/10 09:50:34;;;;;;;49.97;26.08;;;2.20;99.90;;;;;;4996712;28;20038;-83
2020/12/10 09:53:30;;;;;;;37.35;20.73;;;2.30;99.90;;;;;;5014783;28;20045;-83
2020/12/10 09:58:24;;;;;;;31.48;17.50;;;2.40;99.90;;;;;;5014564;28;20037;-83
2020/12/10 10:00:51;;;;;;;44.70;22.42;;;2.50;99.90;;;;;;4997442;28;20045;-83
2020/12/10 10:03:19;;;;;;;36.45;21.00;;;2.40;99.90;;;;;;5013135;28;20038;-83
2020/12/10 10:05:46;;;;;;;28.35;17.13;;;2.30;99.90;;;;;;4997978;28;20101;-82
2020/12/10 10:08:13;;;;;;;29.60;16.80;;;2.20;99.90;;;;;;4997664;28;20113;-83
2020/12/10 10:10:47;;;;;;;26.10;15.10;;;2.30;99.90;;;;;;5014461;28;20034;-82
2020/12/10 10:13:13;;;;;;;25.95;15.30;;;2.30;99.90;;;;;;5014484;28;20033;-81
2020/12/10 10:15:41;;;;;;;48.28;24.35;;;2.30;99.90;;;;;;5014992;28;20463;-83
2020/12/10 10:18:08;;;;;;;29.45;17.20;;;2.30;99.90;;;;;;5014210;28;20026;-83
2020/12/10 10:20:37;;;;;;;29.58;16.48;;;2.30;99.90;;;;;;5014708;28;20371;-83
2020/12/10 10:23:04;;;;;;;22.20;14.10;;;2.30;99.90;;;;;;5014146;28;20033;-83
2020/12/10 10:25:50;;;;;;;29.38;16.77;;;2.30;99.90;;;;;;5013517;28;20053;-83
2020/12/10 10:28:17;;;;;;;24.52;15.18;;;2.30;99.90;;;;;;5013913;28;20030;-83
2020/12/10 10:30:43;;;;;;;25.60;15.27;;;2.30;99.90;;;;;;4997546;28;20030;-83
2020/12/10 10:33:09;;;;;;;26.95;15.07;;;2.20;99.90;;;;;;5014337;28;20048;-83
2020/12/10 10:35:36;;;;;;;25.83;15.15;;;2.20;99.90;;;;;;4995880;28;20053;-83
2020/12/10 10:38:02;;;;;;;26.08;14.45;;;2.20;99.90;;;;;;4995983;28;20048;-83
2020/12/10 10:40:37;;;;;;;26.02;14.35;;;2.30;99.90;;;;;;5012715;28;20046;-82
2020/12/10 10:43:04;;;;;;;28.30;17.17;;;2.30;99.90;;;;;;5014067;28;20033;-83
2020/12/10 10:45:30;;;;;;;26.40;15.52;;;2.40;99.90;;;;;;4996244;28;20030;-83
2020/12/10 10:47:56;;;;;;;25.48;15.60;;;2.50;99.90;;;;;;5014369;28;20379;-83
2020/12/10 10:50:22;;;;;;;25.02;14.15;;;2.50;99.90;;;;;;5017111;28;20468;-81
2020/12/10 10:52:49;;;;;;;25.15;15.77;;;2.60;99.90;;;;;;5018279;28;20600;-82
2020/12/10 10:55:15;;;;;;;27.55;16.00;;;2.70;99.90;;;;;;5015120;28;20034;-82
2020/12/10 10:57:41;;;;;;;25.45;15.50;;;2.70;99.90;;;;;;5014389;28;20026;-83
2020/12/10 11:00:07;;;;;;;24.48;15.65;;;2.70;99.90;;;;;;5013686;28;20034;-83
2020/12/10 11:02:34;;;;;;;26.05;15.65;;;2.60;99.90;;;;;;5004619;28;20042;-83
2020/12/10 11:05:01;;;;;;;25.08;15.23;;;2.60;99.90;;;;;;4996363;28;20049;-83
2020/12/10 11:07:27;;;;;;;23.20;15.30;;;2.60;99.90;;;;;;5012953;28;20361;-83
2020/12/10 11:09:53;;;;;;;25.75;14.98;;;2.60;99.90;;;;;;5013186;28;20388;-83
2020/12/10 11:12:22;;;;;;;27.90;16.00;;;2.70;99.90;;;;;;5012616;28;20028;-83
2020/12/10 11:14:49;;;;;;;23.48;14.70;;;2.80;99.90;;;;;;5012950;28;20037;-82
2020/12/10 11:17:15;;;;;;;24.55;14.30;;;2.70;99.90;;;;;;4995642;28;20049;-82
2020/12/10 11:19:51;;;;;;;27.85;16.73;;;2.70;99.90;;;;;;5010723;28;20391;-83
2020/12/10 11:22:17;;;;;;;25.48;15.18;;;2.70;99.90;;;;;;5011336;28;20041;-83
2020/12/10 11:24:43;;;;;;;26.48;16.15;;;2.70;99.90;;;;;;4996298;28;20030;-83
2020/12/10 11:27:09;;;;;;;28.05;16.58;;;2.80;99.90;;;;;;5013679;28;20042;-83
2020/12/10 11:29:36;;;;;;;26.38;16.88;;;2.80;99.90;;;;;;5012517;28;20049;-83
2020/12/10 11:32:24;;;;;;;27.23;16.20;;;2.80;99.90;;;;;;5012746;28;20033;-83
2020/12/10 11:34:53;;;;;;;28.70;16.48;;;2.80;99.90;;;;;;5012932;28;20034;-83
2020/12/10 11:37:21;;;;;;;25.33;16.92;;;2.80;99.90;;;;;;5012439;28;20037;-83
2020/12/10 11:39:47;;;;;;;27.58;15.75;;;2.80;99.90;;;;;;5031830;28;20386;-83
2020/12/10 11:42:15;;;;;;;23.73;14.98;;;2.80;99.90;;;;;;5014011;28;20045;-84
2020/12/10 11:44:42;;;;;;;26.90;16.33;;;2.70;99.90;;;;;;5011143;28;20050;-84
2020/12/10 11:47:30;;;;;;;27.60;17.05;;;2.70;99.90;;;;;;5012418;28;20042;-83
2020/12/10 11:49:56;;;;;;;30.10;18.67;;;2.70;99.90;;;;;;5000439;28;20041;-83
2020/12/10 11:52:43;;;;;;;303.48;155.80;;;2.70;99.90;;;;;;5017179;28;20044;-83
2020/12/10 11:55:09;;;;;;;48.08;28.45;;;2.70;99.90;;;;;;5013570;28;20050;-84
2020/12/10 11:57:44;;;;;;;175.25;88.82;;;2.70;99.90;;;;;;5015828;28;20049;-84
2020/12/10 12:00:13;;;;;;;60.75;38.05;;;2.80;99.90;;;;;;5021250;28;20379;-84
2020/12/10 12:02:51;;;;;;;37.10;22.40;;;2.90;99.90;;;;;;5013846;28;20037;-83
2020/12/10 12:05:19;;;;;;;28.70;16.33;;;2.80;99.90;;;;;;5012107;28;20463;-81
2020/12/10 12:07:47;;;;;;;27.77;16.65;;;2.70;99.90;;;;;;5032002;28;20125;-83
2020/12/10 12:10:15;;;;;;;141.02;64.95;;;2.70;99.90;;;;;;5014321;28;20049;-82
2020/12/10 12:12:42;;;;;;;131.75;65.93;;;2.80;99.90;;;;;;5012383;28;20034;-82
2020/12/10 12:15:08;;;;;;;33.50;20.35;;;2.90;99.90;;;;;;5027035;28;20030;-83
2020/12/10 12:17:35;;;;;;;20.63;12.20;;;2.90;99.90;;;;;;5011656;28;20050;-83
2020/12/10 12:20:25;;;;;;;21.50;12.35;;;2.90;99.90;;;;;;5011871;28;20049;-83
2020/12/10 12:22:52;;;;;;;21.35;13.07;;;2.90;99.90;;;;;;5012072;28;20041;-83
2020/12/10 12:25:18;;;;;;;35.20;19.48;;;2.90;99.90;;;;;;5011980;28;20037;-82
2020/12/10 12:27:44;;;;;;;37.78;20.58;;;2.90;99.90;;;;;;5012453;28;20034;-82
2020/12/10 12:30:11;;;;;;;64.82;32.05;;;3.00;99.90;;;;;;4995473;28;20038;-83
2020/12/10 12:32:37;;;;;;;124.00;61.28;;;3.00;99.90;;;;;;5011743;28;20041;-83
2020/12/10 12:35:03;;;;;;;100.30;51.28;;;3.00;99.90;;;;;;4986026;28;20053;-83
2020/12/10 12:37:51;;;;;;;34.42;20.75;;;2.90;99.90;;;;;;5016289;28;20057;-81
2020/12/10 12:40:20;;;;;;;22.50;13.07;;;3.00;99.90;;;;;;5021082;28;20045;-83
2020/12/10 12:42:57;;;;;;;43.90;25.15;;;3.00;99.90;;;;;;5022993;28;20049;-84
2020/12/10 12:45:23;;;;;;;15.75;9.32;;;3.00;99.90;;;;;;4993137;28;20403;-82
2020/12/10 12:47:51;;;;;;;30.63;17.27;;;2.90;99.90;;;;;;4994742;28;20042;-83
2020/12/10 12:50:17;;;;;;;16.00;10.05;;;2.90;99.90;;;;;;4993756;28;20050;-82
2020/12/10 12:52:46;;;;;;;15.63;9.55;;;2.90;99.90;;;;;;5011394;28;20067;-82
2020/12/10 12:55:16;;;;;;;30.58;18.95;;;2.90;99.90;;;;;;5011593;28;20216;-80